This is the latest recevied weather packets stored in our database for station/object WB5CFT. If no packets are shown the sender has not sent any weather packets the latest 10 day(s).
| Time | Temp. | Humidity | Pressure | Rain* | Wind** | Luminosity | Snow |
|---|---|---|---|---|---|---|---|
| 1777917068 | 27.22° C | 26% | 1012.8 hPa | 0 mm | - | 406 W/m² | - |
| 1777916767 | 27.22° C | 27% | 1012.9 hPa | 0 mm | - | 403 W/m² | - |
| 1777916463 | 26.67° C | 26% | 1012.9 hPa | 0 mm | - | 447 W/m² | - |
| 1777916160 | 26.67° C | 27% | 1013.2 hPa | 0 mm | - | 373 W/m² | - |
| 1777915858 | 26.67° C | 28% | 1013.2 hPa | 0 mm | - | 301 W/m² | - |
| 1777915554 | 26.67° C | 27% | 1013 hPa | 0 mm | - | 293 W/m² | - |
| 1777915250 | 26.67° C | 29% | 1013.2 hPa | 0 mm | - | 313 W/m² | - |
| 1777914947 | 26.67° C | 28% | 1013.4 hPa | 0 mm | - | 342 W/m² | - |
| 1777914644 | 26.67° C | 28% | 1013.3 hPa | 0 mm | - | 433 W/m² | - |
| 1777914339 | 26.67° C | 27% | 1013.4 hPa | 0 mm | - | 448 W/m² | - |
| 1777914038 | 26.67° C | 27% | 1013.4 hPa | 0 mm | - | 429 W/m² | - |
| 1777913733 | 26.67° C | 29% | 1013.5 hPa | 0 mm | - | 347 W/m² | - |
| 1777913430 | 26.11° C | 31% | 1013.5 hPa | 0 mm | - | 357 W/m² | - |
| 1777913127 | 26.11° C | 30% | 1013.5 hPa | 0 mm | - | 352 W/m² | - |
| 1777912823 | 26.11° C | 32% | 1013.6 hPa | 0 mm | - | 327 W/m² | - |
| 1777912520 | 25.56° C | 32% | 1013.6 hPa | 0 mm | - | 391 W/m² | - |
| 1777912216 | 23.89° C | 46% | 1013.3 hPa | 0 mm | - | 382 W/m² | - |
| 1777911912 | 22.78° C | 53% | 1013.3 hPa | 0 mm | - | 397 W/m² | - |
| 1777911608 | 21.67° C | 57% | 1013.4 hPa | 0 mm | - | 293 W/m² | - |
| 1777911304 | 21.11° C | 61% | 1013.6 hPa | 0 mm | - | 285 W/m² | - |
| 1777911003 | 20.56° C | 62% | 1013.6 hPa | 0 mm | - | 269 W/m² | - |
| 1777910700 | 20.56° C | 63% | 1013.8 hPa | 0 mm | - | 268 W/m² | - |
| 1777910396 | 20° C | 63% | 1014 hPa | 0 mm | - | 237 W/m² | - |
| 1777910093 | 20° C | 63% | 1013.9 hPa | 0 mm | - | 256 W/m² | - |
| 1777909791 | 20° C | 64% | 1013.7 hPa | 0 mm | - | 251 W/m² | - |
* Rain latest hour (hover to see other rain measurements)
** Current wind speed in m/s (hover to see current wind gust speed)